Time;durP1;ratioP1;P1;durP2;ratioP2;P2;SDS_P1;SDS_P2;PMS_P1;PMS_P2;Temp;Humidity;BMP_temperature;BMP_pressure;BME280_temperature;BME280_humidity;BME280_pressure;Samples;Min_cycle;Max_cycle;Signal;HPM_P1;HPM_P2
2022/05/23 00:02:03;;;;;;;2.53;1.33;;;14.70;99.90;;;13.96;100.00;96798.91;5022540;28;20045;-73
2022/05/23 00:04:31;;;;;;;4.03;1.45;;;14.70;99.90;;;13.85;100.00;96801.44;5018311;28;20054;-74
2022/05/23 00:06:58;;;;;;;4.70;1.52;;;14.60;99.90;;;13.63;100.00;96803.81;5022309;28;20414;-73
2022/05/23 00:09:26;;;;;;;6.13;2.00;;;14.50;99.90;;;13.54;100.00;96797.44;5020748;28;20053;-72
2022/05/23 00:11:53;;;;;;;3.42;1.45;;;14.40;99.90;;;13.63;100.00;96793.38;5019472;28;20061;-73
2022/05/23 00:14:20;;;;;;;5.25;1.60;;;14.40;99.90;;;13.55;100.00;96797.34;5021637;28;20063;-73
2022/05/23 00:16:50;;;;;;;5.22;1.73;;;14.30;99.90;;;13.48;100.00;96798.69;5017745;28;20060;-73
2022/05/23 00:19:19;;;;;;;4.45;1.83;;;14.30;99.90;;;13.53;100.00;96790.56;5018836;28;20124;-74
2022/05/23 00:21:46;;;;;;;4.25;1.40;;;14.30;99.90;;;13.61;100.00;96780.44;5021756;28;20077;-73
2022/05/23 00:24:15;;;;;;;3.67;1.50;;;14.30;99.90;;;13.57;100.00;96779.81;5023727;28;20124;-74
2022/05/23 00:26:46;;;;;;;4.68;1.75;;;14.20;99.90;;;13.51;100.00;96774.19;5022809;28;20049;-72
2022/05/23 00:29:13;;;;;;;4.95;1.83;;;14.30;99.90;;;13.47;100.00;96768.31;5020717;28;20072;-74
2022/05/23 00:35:17;;;;;;;4.20;1.70;;;14.20;99.90;;;13.49;100.00;96757.81;5020971;28;20057;-73
2022/05/23 00:37:13;;;;;;;8.88;2.15;;;14.20;99.90;;;13.47;100.00;96755.28;5020727;28;20124;-73
2022/05/23 00:39:40;;;;;;;4.10;1.70;;;14.20;99.90;;;13.52;100.00;96754.97;5019856;28;20543;-75
2022/05/23 00:45:04;;;;;;;3.85;1.60;;;14.30;99.90;;;13.59;100.00;96745.81;5016412;28;20049;-72
2022/05/23 00:47:34;;;;;;;5.75;1.73;;;14.30;99.90;;;13.59;100.00;96735.38;5021178;28;20072;-73
2022/05/23 00:50:02;;;;;;;4.45;1.88;;;14.30;99.90;;;13.55;100.00;96723.50;5019235;28;20140;-72
2022/05/23 00:52:36;;;;;;;3.85;1.77;;;14.30;99.90;;;13.61;100.00;96715.25;5023283;28;20103;-71
2022/05/23 00:55:15;;;;;;;6.82;2.08;;;14.30;99.90;;;13.58;100.00;96700.66;5024299;28;20096;-72
2022/05/23 00:57:48;;;;;;;3.65;1.55;;;14.30;99.90;;;13.59;100.00;96712.75;5018450;28;20172;-72
2022/05/23 01:00:16;;;;;;;4.53;1.73;;;14.30;99.90;;;13.56;100.00;96712.13;5021116;28;20133;-71
2022/05/23 01:02:50;;;;;;;4.15;1.33;;;14.20;99.90;;;13.57;100.00;96712.03;5018239;28;20148;-72
2022/05/23 01:05:18;;;;;;;3.63;1.58;;;14.30;99.90;;;13.54;100.00;96711.41;5023188;28;20372;-73
2022/05/23 01:07:45;;;;;;;3.78;1.40;;;14.30;99.90;;;13.53;100.00;96709.75;5017629;28;20229;-73
2022/05/23 01:10:12;;;;;;;3.67;1.65;;;14.30;99.90;;;13.61;100.00;96710.03;5026222;28;20077;-74
2022/05/23 01:12:41;;;;;;;4.18;1.60;;;14.30;99.90;;;13.78;100.00;96712.31;5020014;28;20045;-73
2022/05/23 01:15:22;;;;;;;4.38;1.30;;;14.40;99.90;;;13.93;100.00;96706.97;5021815;28;20073;-73
2022/05/23 01:17:49;;;;;;;3.38;0.90;;;14.60;99.90;;;13.95;100.00;96695.47;5024985;28;20949;-73
2022/05/23 01:20:18;;;;;;;3.30;1.33;;;14.70;99.90;;;13.96;100.00;96681.50;5025787;28;20479;-73
2022/05/23 01:23:00;;;;;;;3.38;1.70;;;14.60;99.90;;;14.05;100.00;96673.97;5026725;28;20041;-72
2022/05/23 01:25:34;;;;;;;2.92;1.48;;;14.70;99.90;;;14.05;100.00;96668.75;5019545;28;20049;-73
2022/05/23 01:28:03;;;;;;;4.20;1.65;;;14.80;99.90;;;13.92;100.00;96664.41;5026888;28;20061;-72
2022/05/23 01:30:34;;;;;;;2.65;1.15;;;14.80;99.90;;;14.20;100.00;96665.03;5026536;28;20080;-73
2022/05/23 01:33:03;;;;;;;3.78;1.40;;;14.80;99.90;;;14.05;100.00;96660.91;5027721;28;20128;-73
2022/05/23 01:35:30;;;;;;;5.75;1.20;;;14.80;99.90;;;14.15;100.00;96657.53;5021869;28;20041;-72
2022/05/23 01:37:58;;;;;;;4.10;1.60;;;14.80;99.90;;;14.17;100.00;96653.06;5044489;28;20128;-72
2022/05/23 01:40:25;;;;;;;5.28;1.70;;;14.80;99.90;;;14.00;100.00;96646.44;5029378;28;20668;-72
2022/05/23 01:42:53;;;;;;;3.45;1.55;;;14.80;99.90;;;14.12;100.00;96633.47;5027338;28;20136;-74
2022/05/23 01:45:25;;;;;;;3.00;1.30;;;14.80;99.90;;;14.13;100.00;96625.50;5023874;28;20053;-71
2022/05/23 01:47:53;;;;;;;3.53;1.58;;;14.90;99.90;;;14.02;100.00;96620.22;5020883;28;20140;-73
2022/05/23 01:50:25;;;;;;;4.05;1.35;;;14.90;99.90;;;14.21;100.00;96625.78;5020033;28;20124;-72
2022/05/23 01:52:53;;;;;;;2.47;1.63;;;14.90;99.90;;;14.32;100.00;96618.94;5027176;28;20053;-74
2022/05/23 01:55:21;;;;;;;2.72;1.15;;;15.00;99.90;;;14.50;100.00;96612.38;5012161;28;20059;-72
2022/05/23 01:57:48;;;;;;;3.60;1.38;;;15.10;99.90;;;14.33;100.00;96618.84;5019103;28;20132;-73
2022/05/23 02:03:02;;;;;;;2.72;1.50;;;15.00;99.90;;;14.39;100.00;96628.00;5028044;28;20049;-72
2022/05/23 02:05:30;;;;;;;2.65;1.40;;;15.10;99.90;;;14.46;100.00;96623.16;5023464;28;20111;-75
2022/05/23 02:07:57;;;;;;;6.88;1.38;;;15.10;99.90;;;14.39;100.00;96623.63;5026185;28;20140;-71
2022/05/23 02:10:24;;;;;;;3.30;1.35;;;15.10;99.90;;;14.41;100.00;96621.75;5026440;28;20075;-72
2022/05/23 02:12:51;;;;;;;4.97;1.67;;;15.10;99.90;;;14.42;100.00;96612.13;5025116;28;20140;-72
2022/05/23 02:15:20;;;;;;;6.30;1.70;;;15.10;99.90;;;14.49;100.00;96613.34;5023074;28;20046;-72
2022/05/23 02:17:46;;;;;;;4.07;1.40;;;15.10;99.90;;;14.54;100.00;96613.84;5020312;28;20056;-71
2022/05/23 02:20:14;;;;;;;4.05;1.60;;;15.10;99.90;;;14.56;100.00;96608.53;5025861;28;20478;-71
2022/05/23 02:22:41;;;;;;;7.65;1.83;;;15.20;99.90;;;14.55;100.00;96601.63;5023732;28;20088;-72
2022/05/23 02:25:09;;;;;;;4.25;1.80;;;15.30;99.90;;;14.46;100.00;96610.09;5024346;28;20050;-72
2022/05/23 02:27:36;;;;;;;3.90;1.70;;;15.20;99.90;;;14.47;100.00;96615.22;5023760;28;20049;-73
2022/05/23 02:30:05;;;;;;;3.53;1.60;;;15.10;99.90;;;14.26;100.00;96619.41;5025989;28;20140;-72
2022/05/23 02:32:32;;;;;;;5.70;1.50;;;15.00;99.90;;;14.22;100.00;96621.41;5017330;28;20144;-72
2022/05/23 02:34:59;;;;;;;4.18;1.70;;;15.00;99.90;;;14.14;100.00;96631.53;5003999;28;20096;-72
2022/05/23 02:37:26;;;;;;;4.50;1.50;;;15.00;99.90;;;14.27;100.00;96636.72;5025731;28;20133;-74
2022/05/23 02:39:53;;;;;;;3.20;1.52;;;15.00;99.90;;;14.27;100.00;96649.78;5025702;28;20077;-72
2022/05/23 02:42:20;;;;;;;3.25;1.50;;;15.10;99.90;;;14.33;100.00;96662.41;5024996;28;20178;-72
2022/05/23 02:44:47;;;;;;;3.40;1.52;;;15.10;99.90;;;14.41;100.00;96671.34;5024070;28;20176;-72
2022/05/23 02:47:14;;;;;;;4.00;1.70;;;15.20;99.90;;;14.49;100.00;96688.22;5023255;28;20140;-75
2022/05/23 02:49:41;;;;;;;8.13;1.77;;;15.20;99.90;;;14.62;100.00;96684.63;5025919;28;20164;-73
2022/05/23 02:52:09;;;;;;;7.20;1.65;;;15.20;99.90;;;14.73;100.00;96688.22;5027118;28;20084;-73
2022/05/23 02:54:36;;;;;;;3.30;1.60;;;15.30;99.90;;;14.79;100.00;96695.63;5027631;28;20463;-73
2022/05/23 02:57:03;;;;;;;4.75;1.80;;;15.40;99.90;;;14.85;100.00;96709.06;5026352;28;20063;-73
2022/05/23 02:59:30;;;;;;;3.83;1.73;;;15.50;99.90;;;14.49;100.00;96764.78;5021658;28;20133;-75
2022/05/23 03:04:44;;;;;;;5.68;2.40;;;15.50;99.90;;;14.19;100.00;96873.00;5026774;28;20046;-74
2022/05/23 03:07:11;;;;;;;6.18;2.00;;;15.30;99.90;;;14.05;100.00;96877.50;5026679;28;20158;-74
2022/05/23 03:09:38;;;;;;;4.05;1.83;;;15.20;99.90;;;14.02;100.00;96881.16;5027487;28;20069;-73
2022/05/23 03:12:06;;;;;;;10.85;2.67;;;15.10;99.90;;;13.84;100.00;96870.16;5024754;28;20056;-75
2022/05/23 03:14:33;;;;;;;7.43;2.42;;;15.00;99.90;;;13.66;100.00;96867.03;5025719;28;20099;-72
2022/05/23 03:17:06;;;;;;;3.70;1.70;;;14.80;99.90;;;13.64;100.00;96855.88;5025632;28;20129;-72
2022/05/23 03:19:39;;;;;;;8.00;3.70;;;14.60;99.90;;;13.70;100.00;96846.78;5023207;28;20076;-72
2022/05/23 03:27:45;;;;;;;12.25;3.60;;;14.60;99.90;;;13.65;100.00;96875.78;5022776;28;20053;-71
2022/05/23 03:30:12;;;;;;;4.60;2.80;;;14.50;99.90;;;13.68;100.00;96886.00;5021800;28;20141;-73
2022/05/23 03:32:39;;;;;;;4.75;2.45;;;14.60;99.90;;;13.71;100.00;96890.22;5022838;28;20499;-72
2022/05/23 03:35:07;;;;;;;5.82;2.30;;;14.50;99.90;;;13.51;100.00;96888.91;5024093;28;20474;-72
2022/05/23 03:37:35;;;;;;;6.78;3.08;;;14.50;99.90;;;13.37;100.00;96892.41;5020002;28;20132;-72
2022/05/23 03:40:05;;;;;;;6.00;2.72;;;14.30;99.90;;;13.49;100.00;96875.13;5025832;28;20133;-71
2022/05/23 03:42:34;;;;;;;4.95;2.60;;;14.20;99.90;;;13.52;100.00;96841.84;5018188;28;20100;-73
2022/05/23 03:45:02;;;;;;;5.72;3.13;;;14.30;99.90;;;13.54;100.00;96845.19;5024985;28;20167;-72
2022/05/23 03:47:29;;;;;;;6.47;3.63;;;14.30;99.90;;;13.51;100.00;96857.63;5024083;28;20077;-72
2022/05/23 03:49:56;;;;;;;3.58;2.63;;;14.30;99.90;;;13.45;100.00;96853.63;5026709;28;20128;-71
2022/05/23 03:52:23;;;;;;;8.73;4.18;;;14.30;99.90;;;13.34;100.00;96858.69;5021054;28;20129;-72
2022/05/23 03:54:50;;;;;;;7.35;4.05;;;14.30;99.90;;;13.19;100.00;96869.16;5021819;28;20061;-73
2022/05/23 03:57:17;;;;;;;8.30;3.67;;;14.20;99.90;;;13.23;100.00;96862.00;5024076;28;20050;-71
2022/05/23 03:59:45;;;;;;;8.85;4.60;;;14.20;99.90;;;13.09;100.00;96859.41;5023947;28;20100;-73
2022/05/23 04:02:12;;;;;;;10.75;4.38;;;14.10;99.90;;;13.10;100.00;96851.50;5022524;28;20053;-72
2022/05/23 04:04:39;;;;;;;7.90;4.70;;;14.00;99.90;;;12.92;100.00;96848.31;5022761;28;20128;-73
2022/05/23 04:07:08;;;;;;;7.47;4.05;;;14.00;99.90;;;12.96;100.00;96839.38;5022989;28;20042;-72
2022/05/23 04:09:35;;;;;;;8.63;3.30;;;13.90;99.90;;;13.07;100.00;96817.84;5022919;28;20061;-72
2022/05/23 04:12:03;;;;;;;8.52;3.50;;;13.90;99.90;;;13.26;100.00;96801.84;5024483;28;20137;-72
2022/05/23 04:14:30;;;;;;;6.30;3.10;;;14.00;99.90;;;13.30;100.00;96787.72;5020749;28;20084;-72
2022/05/23 04:16:57;;;;;;;5.55;2.30;;;14.00;99.90;;;13.39;100.00;96774.06;5023605;28;20145;-72
2022/05/23 04:19:25;;;;;;;4.82;2.53;;;14.10;99.90;;;13.28;100.00;96767.91;5024802;28;20736;-72
2022/05/23 04:21:52;;;;;;;6.90;2.40;;;14.10;99.90;;;13.41;100.00;96742.69;5025259;28;20088;-72
2022/05/23 04:24:20;;;;;;;8.85;3.35;;;14.10;99.90;;;13.42;100.00;96701.81;5020651;28;20195;-72
2022/05/23 04:26:53;;;;;;;4.13;2.10;;;14.10;99.90;;;13.41;100.00;96701.00;5021292;28;20045;-73
2022/05/23 04:29:22;;;;;;;7.10;2.45;;;14.20;99.90;;;13.45;100.00;96681.56;5022983;28;20132;-71
2022/05/23 04:31:49;;;;;;;6.88;2.60;;;14.10;99.90;;;13.49;100.00;96684.81;5020358;28;20573;-74
2022/05/23 04:37:03;;;;;;;7.40;2.45;;;14.20;99.90;;;13.54;100.00;96674.91;5017694;28;20615;-72
2022/05/23 04:39:30;;;;;;;5.60;2.22;;;14.10;99.90;;;13.47;100.00;96677.09;5023516;28;20099;-72
2022/05/23 04:41:57;;;;;;;5.18;3.35;;;14.20;99.90;;;13.53;100.00;96674.06;5019515;28;20080;-73
2022/05/23 04:44:24;;;;;;;5.20;2.65;;;14.20;99.90;;;13.56;100.00;96660.81;5019970;28;20086;-71
2022/05/23 04:49:44;;;;;;;6.97;3.28;;;14.40;99.90;;;13.56;100.00;96564.34;5026382;28;20160;-73
2022/05/23 04:52:14;;;;;;;5.53;2.55;;;14.30;99.90;;;13.48;100.00;96503.25;5022625;28;20361;-73
2022/05/23 04:54:42;;;;;;;5.15;2.33;;;14.30;99.90;;;13.56;100.00;96486.13;5020649;28;20532;-73
2022/05/23 04:57:10;;;;;;;6.70;1.92;;;14.30;99.90;;;13.75;100.00;96484.78;5022487;28;20045;-73
2022/05/23 04:59:37;;;;;;;5.28;1.77;;;14.30;99.90;;;13.89;100.00;96505.50;5026382;28;20120;-75
2022/05/23 05:02:05;;;;;;;3.70;2.10;;;14.50;99.90;;;13.85;100.00;96513.66;5023381;28;20133;-72
2022/05/23 05:04:32;;;;;;;4.97;2.60;;;14.50;99.90;;;13.86;100.00;96523.97;5022500;28;20141;-73
2022/05/23 05:07:00;;;;;;;4.65;2.33;;;14.60;99.90;;;13.87;100.00;96528.25;5023636;28;20706;-71
2022/05/23 05:09:27;;;;;;;5.00;2.50;;;14.70;99.90;;;13.91;100.00;96542.75;5025217;28;20045;-72
2022/05/23 05:11:54;;;;;;;4.30;2.10;;;14.70;99.90;;;14.15;100.00;96534.88;5020377;28;20136;-72
2022/05/23 05:14:21;;;;;;;4.53;2.17;;;14.80;99.90;;;14.27;100.00;96538.38;5020364;28;20068;-72
2022/05/23 05:16:49;;;;;;;4.50;2.20;;;14.90;99.90;;;14.32;100.00;96532.81;5021163;28;20063;-74
2022/05/23 05:19:16;;;;;;;2.83;1.50;;;15.00;99.90;;;14.46;100.00;96529.16;5022387;28;20050;-72
2022/05/23 05:21:43;;;;;;;4.30;1.67;;;15.10;99.90;;;14.55;100.00;96528.50;5020016;28;20059;-73
2022/05/23 05:24:15;;;;;;;6.00;2.00;;;15.20;99.90;;;14.54;100.00;96525.06;5022900;28;20132;-73
2022/05/23 05:26:42;;;;;;;5.85;2.42;;;15.30;99.90;;;14.50;100.00;96504.50;5022280;28;20194;-71
2022/05/23 05:29:09;;;;;;;5.03;1.77;;;15.30;99.90;;;14.66;100.00;96506.81;5022780;28;20099;-72
2022/05/23 05:32:07;;;;;;;6.05;2.35;;;15.30;99.90;;;14.36;100.00;96501.13;5023155;28;20046;-71
2022/05/23 05:34:56;;;;;;;8.10;2.80;;;15.40;99.90;;;14.26;100.00;96504.56;5025494;28;20091;-71
2022/05/23 05:37:31;;;;;;;5.97;3.05;;;15.30;99.90;;;14.20;100.00;96506.66;5023018;28;20583;-71
2022/05/23 05:40:02;;;;;;;7.57;2.95;;;15.30;99.90;;;14.10;100.00;96504.88;5017229;28;20071;-70
2022/05/23 05:42:35;;;;;;;6.72;2.70;;;15.30;99.90;;;14.17;100.00;96503.47;5026990;28;20069;-71
2022/05/23 05:45:09;;;;;;;5.97;2.63;;;15.40;99.90;;;14.13;100.00;96497.63;5021611;28;20381;-71
2022/05/23 05:47:41;;;;;;;3.03;2.17;;;15.40;99.90;;;14.23;100.00;96501.25;5023950;28;20424;-71
2022/05/23 05:50:13;;;;;;;8.30;2.70;;;15.40;99.90;;;14.30;100.00;96512.06;5019569;28;20046;-72
2022/05/23 05:52:40;;;;;;;7.80;2.53;;;15.50;99.90;;;14.25;100.00;96506.31;5021344;28;20153;-74
2022/05/23 05:55:08;;;;;;;5.50;2.42;;;15.60;99.90;;;14.30;100.00;96511.19;5038351;28;20075;-71
2022/05/23 05:57:36;;;;;;;5.45;2.00;;;15.60;99.90;;;14.63;100.00;96510.47;5022525;28;20045;-73
2022/05/23 06:00:04;;;;;;;4.55;1.65;;;15.70;99.90;;;14.58;100.00;96518.66;5019540;28;20108;-73
2022/05/23 06:02:32;;;;;;;8.05;2.20;;;15.80;99.90;;;14.67;100.00;96535.44;5026911;28;20124;-74
2022/05/23 06:04:59;;;;;;;5.35;2.20;;;15.90;99.90;;;14.76;100.00;96549.56;5025401;28;20049;-72
2022/05/23 06:13:05;;;;;;;5.53;2.35;;;16.00;99.90;;;15.19;100.00;96565.41;5023237;28;20424;-72
2022/05/23 06:15:32;;;;;;;5.28;2.13;;;16.20;99.90;;;15.14;100.00;96577.16;5028107;28;20049;-73
2022/05/23 06:18:00;;;;;;;5.07;2.63;;;16.30;99.90;;;15.33;100.00;96571.34;5027475;28;20153;-71
2022/05/23 06:20:27;;;;;;;5.05;2.17;;;16.40;99.90;;;15.46;100.00;96575.50;5026929;28;20486;-72
2022/05/23 06:22:54;;;;;;;7.15;2.10;;;16.60;99.90;;;15.57;100.00;96571.19;5023463;28;20054;-71
2022/05/23 06:25:22;;;;;;;4.38;2.38;;;16.70;99.90;;;15.46;100.00;96567.66;5025111;28;20056;-70
2022/05/23 06:27:50;;;;;;;6.00;1.90;;;16.80;99.90;;;15.63;100.00;96570.72;5020484;28;20081;-71
2022/05/23 06:30:18;;;;;;;5.68;1.92;;;16.90;99.90;;;15.75;100.00;96579.41;5025643;28;20045;-71
2022/05/23 06:32:46;;;;;;;4.03;1.77;;;17.00;99.90;;;15.93;100.00;96567.47;5024312;28;20088;-74
2022/05/23 06:35:14;;;;;;;6.70;2.10;;;17.20;99.90;;;16.20;100.00;96574.88;5023040;28;20136;-71
2022/05/23 06:37:43;;;;;;;5.03;2.05;;;17.30;99.90;;;15.80;100.00;96558.94;5026158;28;20119;-70
2022/05/23 06:40:13;;;;;;;3.78;2.08;;;17.30;99.90;;;15.82;100.00;96563.09;5022071;28;20132;-73
2022/05/23 06:42:41;;;;;;;4.72;2.10;;;17.10;99.90;;;15.60;100.00;96553.50;5026844;28;20473;-73
2022/05/23 06:45:09;;;;;;;5.55;2.22;;;17.10;99.90;;;16.28;100.00;96546.31;5025401;28;20060;-73
2022/05/23 06:47:36;;;;;;;4.20;2.55;;;17.20;99.90;;;15.68;100.00;96552.88;5021899;28;20064;-71
2022/05/23 06:50:04;;;;;;;5.07;2.20;;;17.20;99.90;;;16.02;100.00;96544.97;5022643;28;20077;-74
2022/05/23 06:52:31;;;;;;;3.72;2.00;;;17.20;99.90;;;16.39;100.00;96539.34;5025892;28;20518;-72
2022/05/23 06:54:58;;;;;;;4.28;1.95;;;17.30;99.90;;;16.19;100.00;96538.34;5030094;28;20061;-71
2022/05/23 06:57:31;;;;;;;5.50;2.55;;;17.30;99.90;;;16.12;100.00;96529.34;5028914;28;20041;-72
2022/05/23 06:59:58;;;;;;;4.28;2.67;;;17.40;99.90;;;16.16;100.00;96538.59;5029827;28;20144;-72
2022/05/23 07:02:26;;;;;;;5.13;2.63;;;17.30;99.90;;;16.07;100.00;96532.34;5026852;28;20068;-72
2022/05/23 07:13:10;;;;;;;3.67;1.77;;;17.30;99.90;;;16.41;100.00;96550.53;5022724;28;20104;-72
2022/05/23 07:15:38;;;;;;;3.20;2.13;;;17.40;99.90;;;16.32;100.00;96533.78;5014910;28;20482;-72
2022/05/23 07:18:05;;;;;;;5.63;2.00;;;17.50;99.90;;;16.51;100.00;96543.53;5023677;28;20155;-75
2022/05/23 07:20:33;;;;;;;6.55;1.85;;;17.60;99.90;;;17.14;100.00;96538.28;5023820;28;20621;-74
2022/05/23 07:23:00;;;;;;;5.32;1.92;;;18.00;99.90;;;16.94;100.00;96513.75;5019811;28;20136;-72
2022/05/23 07:25:27;;;;;;;5.82;1.83;;;18.20;99.90;;;17.26;100.00;96511.00;5027219;28;20604;-72
2022/05/23 07:27:54;;;;;;;4.18;1.95;;;18.20;99.90;;;16.95;100.00;96498.91;5016191;28;20132;-71
2022/05/23 07:30:21;;;;;;;6.25;2.20;;;18.10;99.90;;;16.81;100.00;96490.41;5019898;28;20810;-72
2022/05/23 07:32:49;;;;;;;3.85;2.53;;;18.00;99.90;;;16.85;100.00;96483.09;5020285;28;20061;-71
2022/05/23 07:35:17;;;;;;;3.85;1.90;;;18.00;99.90;;;17.48;100.00;96473.25;5022959;28;20124;-72
2022/05/23 07:37:44;;;;;;;6.43;2.00;;;18.20;99.90;;;17.47;100.00;96462.88;5022470;28;20582;-72
2022/05/23 07:40:13;;;;;;;3.45;1.90;;;18.30;99.90;;;17.43;100.00;96457.09;5025929;28;20429;-72
2022/05/23 07:42:43;;;;;;;6.00;2.33;;;18.40;99.90;;;16.88;100.00;96475.00;5018948;28;20172;-72
2022/05/23 07:45:12;;;;;;;3.67;1.83;;;18.30;99.90;;;17.26;100.00;96479.53;5022793;28;20050;-72
2022/05/23 07:47:40;;;;;;;5.30;2.15;;;18.30;99.90;;;16.80;100.00;96482.66;5020831;28;20591;-72
2022/05/23 07:50:10;;;;;;;5.05;2.53;;;18.30;99.90;;;16.75;100.00;96495.31;5020745;28;20049;-70
2022/05/23 07:52:37;;;;;;;5.90;2.65;;;18.20;99.90;;;16.56;100.00;96512.59;5021051;28;20094;-74
2022/05/23 08:00:38;;;;;;;6.13;1.85;;;18.40;99.90;;;17.77;100.00;96503.97;5019564;28;20095;-73
2022/05/23 08:03:18;;;;;;;3.35;1.63;;;18.60;99.90;;;17.72;100.00;96483.38;5022859;28;20049;-72
2022/05/23 08:05:46;;;;;;;4.10;1.95;;;18.80;99.90;;;17.72;100.00;96475.50;5023520;28;20119;-71
2022/05/23 08:08:13;;;;;;;4.70;2.00;;;18.90;99.90;;;18.29;100.00;96473.03;5016245;28;20061;-72
2022/05/23 08:10:40;;;;;;;3.35;1.85;;;19.10;99.90;;;18.02;100.00;96455.38;5019690;28;20232;-72
2022/05/23 08:13:11;;;;;;;5.25;1.95;;;19.30;99.90;;;18.25;100.00;96448.00;5021211;28;21426;-73
2022/05/23 08:15:39;;;;;;;3.33;1.55;;;19.20;99.90;;;18.43;100.00;96450.75;5018383;28;20045;-72
2022/05/23 08:18:08;;;;;;;4.75;1.75;;;19.40;99.90;;;18.22;100.00;96450.91;5020665;28;20061;-71
2022/05/23 08:20:38;;;;;;;4.43;1.40;;;19.50;99.90;;;18.68;100.00;96456.34;5021608;28;20045;-72
2022/05/23 08:23:05;;;;;;;5.72;2.00;;;19.70;99.90;;;18.38;100.00;96463.47;5016872;28;20120;-73
2022/05/23 08:25:32;;;;;;;6.47;2.22;;;19.90;99.90;;;18.31;100.00;96457.94;5022445;28;20136;-71
2022/05/23 08:27:59;;;;;;;4.97;2.22;;;20.00;99.90;;;18.80;100.00;96463.94;5024499;28;20076;-71
2022/05/23 08:30:27;;;;;;;3.92;1.95;;;20.20;99.90;;;18.66;100.00;96459.13;5022593;28;20471;-71
2022/05/23 08:32:54;;;;;;;5.68;1.58;;;20.10;99.90;;;19.35;100.00;96465.78;5022376;28;20060;-72
2022/05/23 08:35:24;;;;;;;3.42;1.40;;;20.20;99.90;;;19.79;100.00;96462.47;5019056;28;20205;-74
2022/05/23 08:37:54;;;;;;;5.97;1.77;;;20.60;99.90;;;20.41;100.00;96465.13;5014909;28;20071;-71
2022/05/23 08:40:53;;;;;;;3.22;1.40;;;21.10;99.90;;;20.78;100.00;96472.00;5026642;28;20041;-73
2022/05/23 08:43:51;;;;;;;4.10;1.40;;;21.60;99.90;;;20.63;100.00;96469.09;5019248;28;20510;-71
2022/05/23 08:46:41;;;;;;;6.75;1.55;;;21.80;99.90;;;20.54;100.00;96460.28;5023086;28;20156;-73
2022/05/23 08:49:49;;;;;;;4.70;2.10;;;22.00;99.90;;;20.70;100.00;96453.50;5020764;28;20183;-72
2022/05/23 08:52:45;;;;;;;6.40;1.40;;;22.10;99.90;;;20.54;100.00;96464.72;5020039;28;20053;-72
2022/05/23 08:55:34;;;;;;;6.78;1.58;;;22.40;99.90;;;20.56;100.00;96460.97;5038728;28;20140;-74
2022/05/23 08:58:06;;;;;;;3.00;1.20;;;22.60;99.90;;;21.40;100.00;96456.81;5018954;28;20048;-72
2022/05/23 09:00:47;;;;;;;4.60;1.45;;;22.60;99.90;;;21.65;100.00;96451.59;5020715;28;20121;-74
2022/05/23 09:03:38;;;;;;;4.85;1.58;;;22.70;99.90;;;21.10;100.00;96455.50;5015804;28;20144;-73
2022/05/23 09:06:20;;;;;;;4.80;1.65;;;22.60;99.90;;;20.70;100.00;96458.75;5015940;28;20372;-73
2022/05/23 09:08:52;;;;;;;3.90;1.58;;;22.60;99.90;;;20.43;100.00;96471.88;5016116;28;20068;-73
2022/05/23 09:11:33;;;;;;;4.95;1.67;;;22.50;99.90;;;20.67;100.00;96459.91;5017492;28;20464;-72
2022/05/23 09:14:01;;;;;;;2.88;1.17;;;22.40;99.90;;;20.79;100.00;96458.66;5020316;28;20166;-73
2022/05/23 09:16:53;;;;;;;3.47;1.48;;;22.30;99.90;;;21.50;100.00;96436.34;5013757;28;20136;-73
2022/05/23 09:19:38;;;;;;;3.00;1.33;;;22.20;99.90;;;20.95;100.00;96447.34;5019603;28;20064;-75
2022/05/23 09:22:20;;;;;;;5.13;1.60;;;22.40;99.90;;;21.26;100.00;96417.81;5017291;28;20044;-73
2022/05/23 09:24:54;;;;;;;7.80;2.00;;;22.30;99.90;;;20.30;100.00;96433.75;5017877;28;20092;-73
2022/05/23 09:27:34;;;;;;;3.67;1.50;;;22.40;99.90;;;20.27;100.00;96429.63;5031992;28;20610;-72
2022/05/23 09:30:15;;;;;;;4.07;2.03;;;22.20;99.90;;;20.10;100.00;96425.22;5015255;28;20073;-73
2022/05/23 09:32:54;;;;;;;4.80;1.98;;;22.10;99.90;;;20.14;100.00;96424.75;5017951;28;20108;-73
2022/05/23 09:35:25;;;;;;;5.55;1.80;;;22.10;99.90;;;20.60;100.00;96420.16;5006302;28;20128;-73
2022/05/23 09:38:17;;;;;;;5.82;1.77;;;22.20;99.90;;;21.00;100.00;96415.22;5024852;28;20571;-72
2022/05/23 09:40:45;;;;;;;5.15;2.03;;;22.50;99.90;;;21.80;100.00;96404.22;5023938;28;20053;-72
2022/05/23 09:49:23;;;;;;;5.70;1.60;;;23.50;99.90;;;22.52;100.00;96394.63;5022842;28;20100;-72
2022/05/23 09:52:13;;;;;;;3.47;1.40;;;23.50;99.90;;;22.38;100.00;96384.75;5022941;28;20136;-75
2022/05/23 09:55:00;;;;;;;5.63;2.00;;;23.60;99.90;;;21.38;100.00;96381.38;5027870;28;20081;-73
2022/05/23 09:57:34;;;;;;;6.80;1.88;;;23.20;99.90;;;21.51;100.00;96382.59;5024183;28;20069;-73
2022/05/23 10:00:27;;;;;;;6.28;1.77;;;23.00;99.90;;;21.47;100.00;96375.16;5023199;28;20046;-72
2022/05/23 10:02:57;;;;;;;3.25;1.38;;;22.90;99.90;;;22.27;100.00;96367.41;5019542;28;20147;-74
2022/05/23 10:05:26;;;;;;;5.18;1.75;;;22.90;99.90;;;22.55;100.00;96343.22;5021248;28;20140;-72
2022/05/23 10:08:02;;;;;;;7.97;1.88;;;23.10;99.90;;;23.01;100.00;96347.84;5020871;28;20050;-72
2022/05/23 10:10:36;;;;;;;4.53;1.42;;;23.40;99.90;;;23.10;100.00;96341.50;5022690;28;20042;-73
2022/05/23 10:13:28;;;;;;;8.13;1.75;;;23.70;99.90;;;23.34;100.00;96317.53;5019551;28;20510;-73
2022/05/23 10:16:24;;;;;;;7.05;1.88;;;24.00;99.90;;;23.45;100.00;96312.84;5037710;28;20597;-72
2022/05/23 10:19:04;;;;;;;2.60;1.25;;;24.20;99.90;;;23.06;100.00;96314.59;5020617;28;20049;-74
2022/05/23 10:21:41;;;;;;;8.88;1.80;;;24.30;99.90;;;23.12;100.00;96318.34;5019049;28;20128;-73
2022/05/23 10:24:27;;;;;;;3.40;1.30;;;24.20;99.90;;;22.59;100.00;96327.84;5019809;28;20136;-72
2022/05/23 10:27:07;;;;;;;6.22;1.92;;;23.80;99.90;;;22.65;100.00;96330.63;5020111;28;20145;-74
2022/05/23 10:29:44;;;;;;;4.18;1.50;;;23.60;99.90;;;22.52;100.00;96330.34;5021720;28;20140;-75
2022/05/23 10:32:45;;;;;;;8.18;1.80;;;23.50;99.90;;;22.46;100.00;96323.91;5022151;28;20049;-73
2022/05/23 10:35:27;;;;;;;5.05;1.60;;;23.30;99.90;;;22.65;100.00;96324.50;5019384;28;20786;-73
2022/05/23 10:42:07;;;;;;;5.15;1.55;;;23.30;99.90;;;21.98;100.00;96330.91;5021209;28;20673;-72
2022/05/23 10:43:45;;;;;;;3.03;1.42;;;23.30;99.90;;;22.34;100.00;96325.25;5022177;28;20581;-72
2022/05/23 10:46:13;;;;;;;2.65;1.40;;;23.40;99.90;;;22.81;100.00;96328.88;5018955;28;20061;-74
2022/05/23 10:49:14;;;;;;;6.53;1.40;;;23.50;99.90;;;22.74;100.00;96319.00;5023910;28;20049;-73
2022/05/23 10:52:10;;;;;;;4.75;1.52;;;23.60;99.90;;;22.42;100.00;96324.41;5019949;28;20037;-72
2022/05/23 10:54:59;;;;;;;3.67;1.60;;;23.60;99.90;;;22.49;100.00;96318.28;5018299;28;20056;-74
2022/05/23 10:57:42;;;;;;;4.78;1.67;;;23.50;99.90;;;22.65;100.00;96314.75;5021349;28;20129;-72
2022/05/23 11:00:22;;;;;;;7.53;1.52;;;23.50;99.90;;;22.63;100.00;96303.53;5019036;28;20103;-73
2022/05/23 11:03:16;;;;;;;6.32;1.77;;;23.50;99.90;;;22.12;100.00;96308.25;5036868;28;20053;-72
2022/05/23 11:05:55;;;;;;;4.00;1.63;;;23.50;99.90;;;21.83;100.00;96314.94;5019553;28;20057;-73
2022/05/23 11:09:20;;;;;;;5.82;1.95;;;23.30;99.90;;;21.80;100.00;96333.72;5014567;28;20133;-75
2022/05/23 11:12:09;;;;;;;6.15;1.70;;;23.00;99.90;;;21.96;100.00;96340.81;5038774;28;20132;-74
2022/05/23 11:15:12;;;;;;;7.65;2.10;;;22.80;99.90;;;21.65;100.00;96352.06;5018998;28;20180;-73
2022/05/23 11:17:53;;;;;;;;;;;22.70;99.90;;;21.90;100.00;96344.97;5021626;28;20136;-72
2022/05/23 11:20:20;;;;;;;6.13;2.28;;;22.80;99.90;;;21.67;100.00;96339.53;5019006;28;20421;-71
2022/05/23 11:23:16;;;;;;;5.75;1.90;;;22.90;99.90;;;21.29;100.00;96333.03;5021767;28;20060;-73
2022/05/23 11:25:50;;;;;;;7.40;2.47;;;22.80;99.90;;;21.41;100.00;96328.28;5020764;28;20085;-74